Time;durP1;ratioP1;P1;durP2;ratioP2;P2;SDS_P1;SDS_P2;PMS_P1;PMS_P2;Temp;Humidity;BMP_temperature;BMP_pressure;BME280_temperature;BME280_humidity;BME280_pressure;Samples;Min_cycle;Max_cycle;Signal;HPM_P1;HPM_P2
2021/12/02 04:02:02;;;;;;;2.10;0.70;;;6.20;84.30;;;;;;5390287;23;20999;-73
2021/12/02 04:04:28;;;;;;;2.10;0.70;;;6.30;83.80;;;;;;4918060;29;20879;-73
2021/12/02 04:06:55;;;;;;;2.67;0.70;;;6.30;83.60;;;;;;4918021;29;20800;-73
2021/12/02 04:09:24;;;;;;;2.33;0.90;;;6.40;83.40;;;;;;4918022;29;20473;-73
2021/12/02 04:11:56;;;;;;;2.00;0.60;;;6.20;83.10;;;;;;4917867;29;20471;-73
2021/12/02 04:14:26;;;;;;;2.47;0.63;;;6.00;84.10;;;;;;4919448;29;20449;-73
2021/12/02 04:16:54;;;;;;;2.00;0.60;;;6.00;84.60;;;;;;4917851;29;20448;-73
2021/12/02 04:19:24;;;;;;;1.97;0.60;;;6.00;84.50;;;;;;4917579;29;20963;-73
2021/12/02 04:21:51;;;;;;;2.10;0.70;;;6.00;84.70;;;;;;4917629;29;20496;-73
2021/12/02 04:24:18;;;;;;;2.20;0.80;;;6.10;85.00;;;;;;4917613;29;20448;-73
2021/12/02 04:26:45;;;;;;;2.00;0.60;;;6.30;84.50;;;;;;4917863;29;20448;-73
2021/12/02 04:29:12;;;;;;;2.00;0.60;;;6.00;83.80;;;;;;4917759;29;20458;-73
2021/12/02 04:31:41;;;;;;;2.03;0.70;;;5.70;85.30;;;;;;4917599;29;20476;-73
2021/12/02 04:34:08;;;;;;;2.50;0.60;;;5.70;86.00;;;;;;4917674;29;20516;-73
2021/12/02 04:36:37;;;;;;;2.00;0.60;;;5.70;86.20;;;;;;4917329;29;20881;-73
2021/12/02 04:39:04;;;;;;;2.00;0.70;;;5.70;86.70;;;;;;4917342;29;20460;-73
2021/12/02 04:41:31;;;;;;;2.60;0.80;;;5.70;86.50;;;;;;4917478;29;20484;-72
2021/12/02 04:43:57;;;;;;;1.97;0.60;;;5.70;86.10;;;;;;4918290;29;20448;-73
2021/12/02 04:46:24;;;;;;;2.07;0.70;;;5.50;86.30;;;;;;4917388;29;20530;-73
2021/12/02 04:48:51;;;;;;;2.00;0.60;;;5.60;87.20;;;;;;4917341;29;20459;-73
2021/12/02 04:51:17;;;;;;;2.97;0.70;;;5.60;86.80;;;;;;4917355;29;20469;-74
2021/12/02 04:53:45;;;;;;;2.00;0.60;;;5.50;86.80;;;;;;4917521;29;20455;-74
2021/12/02 04:56:12;;;;;;;5.03;1.00;;;5.50;87.60;;;;;;4918626;29;20448;-74
2021/12/02 04:58:39;;;;;;;2.93;0.90;;;5.40;86.70;;;;;;4917379;29;20452;-74
2021/12/02 05:01:06;;;;;;;2.10;0.80;;;5.40;87.50;;;;;;4916900;29;20487;-74
2021/12/02 05:03:32;;;;;;;2.07;0.70;;;5.40;87.70;;;;;;4917312;29;20441;-74
2021/12/02 05:05:59;;;;;;;2.10;0.80;;;5.60;87.50;;;;;;4917047;29;20949;-74
2021/12/02 05:08:26;;;;;;;2.10;0.80;;;5.70;87.30;;;;;;4917299;29;20449;-74
2021/12/02 05:10:54;;;;;;;3.17;0.80;;;5.70;86.90;;;;;;4917248;29;20473;-74
2021/12/02 05:13:20;;;;;;;1.97;0.60;;;5.90;86.60;;;;;;4917325;29;20457;-74
2021/12/02 05:15:47;;;;;;;2.20;0.70;;;6.00;86.00;;;;;;4917224;29;20453;-74
2021/12/02 05:18:14;;;;;;;2.10;0.70;;;6.00;86.30;;;;;;4917349;29;20594;-74
2021/12/02 05:20:41;;;;;;;2.00;0.80;;;6.00;85.60;;;;;;4916843;29;20937;-74
2021/12/02 05:23:07;;;;;;;2.20;0.80;;;5.90;85.80;;;;;;4917088;29;20495;-74
2021/12/02 05:25:34;;;;;;;2.10;0.70;;;5.90;85.70;;;;;;4917194;29;20498;-74
2021/12/02 05:28:02;;;;;;;2.00;0.70;;;5.80;85.70;;;;;;4916801;29;20937;-74
2021/12/02 05:30:29;;;;;;;2.63;0.80;;;5.70;86.40;;;;;;4916766;29;20456;-74
2021/12/02 05:32:56;;;;;;;2.13;0.90;;;5.60;86.90;;;;;;4916744;29;21016;-74
2021/12/02 05:35:22;;;;;;;2.17;0.80;;;5.60;87.30;;;;;;4918511;29;20452;-74
2021/12/02 05:37:49;;;;;;;2.17;0.70;;;5.50;87.20;;;;;;4920835;29;20460;-74
2021/12/02 05:40:16;;;;;;;2.07;0.70;;;5.70;87.50;;;;;;4920638;29;20448;-74
2021/12/02 05:42:42;;;;;;;2.20;0.70;;;5.60;86.80;;;;;;4920544;29;20539;-74
2021/12/02 05:45:10;;;;;;;2.20;0.70;;;5.70;87.00;;;;;;4920638;29;20479;-74
2021/12/02 05:47:37;;;;;;;2.20;0.70;;;5.80;86.40;;;;;;4920556;29;20453;-74
2021/12/02 05:50:05;;;;;;;2.43;1.00;;;5.70;86.50;;;;;;4920517;29;20512;-74
2021/12/02 05:52:32;;;;;;;1.97;0.60;;;5.50;86.70;;;;;;4920383;29;20476;-74
2021/12/02 05:54:59;;;;;;;2.73;0.70;;;5.50;87.10;;;;;;4920454;29;20464;-74
2021/12/02 05:57:26;;;;;;;2.47;0.70;;;5.50;86.80;;;;;;4920440;29;20456;-74
2021/12/02 05:59:52;;;;;;;2.30;0.80;;;5.40;87.40;;;;;;4920385;29;20449;-74
2021/12/02 06:02:20;;;;;;;3.07;0.60;;;5.50;87.00;;;;;;4919876;29;20496;-73
2021/12/02 06:04:50;;;;;;;2.10;0.70;;;5.30;86.50;;;;;;4920332;29;20452;-74
2021/12/02 06:07:17;;;;;;;2.00;0.70;;;5.10;86.90;;;;;;4920251;29;20448;-74
2021/12/02 06:09:44;;;;;;;2.40;0.70;;;5.10;87.50;;;;;;4920322;29;20476;-74
2021/12/02 06:12:11;;;;;;;3.30;0.73;;;5.10;87.30;;;;;;4920296;29;20472;-74
2021/12/02 06:14:38;;;;;;;2.20;0.70;;;5.10;87.20;;;;;;4920476;29;20504;-74
2021/12/02 06:17:05;;;;;;;2.10;0.80;;;5.00;87.30;;;;;;4920053;29;20820;-74
2021/12/02 06:19:33;;;;;;;2.00;0.60;;;5.10;87.40;;;;;;4922584;29;20460;-75
2021/12/02 06:22:00;;;;;;;2.00;0.60;;;5.20;87.30;;;;;;4928566;29;20521;-74
2021/12/02 06:24:29;;;;;;;2.00;0.60;;;5.30;86.90;;;;;;4943587;29;20461;-75
2021/12/02 06:26:56;;;;;;;2.50;0.70;;;5.40;86.60;;;;;;4936925;29;20453;-74
2021/12/02 06:29:23;;;;;;;2.50;0.70;;;5.20;85.90;;;;;;4925461;29;20480;-75
2021/12/02 06:31:50;;;;;;;1.97;0.60;;;5.20;86.80;;;;;;4923564;29;20480;-74
2021/12/02 06:34:17;;;;;;;2.10;0.60;;;5.10;86.90;;;;;;4923078;29;20444;-74
2021/12/02 06:36:44;;;;;;;2.00;0.60;;;5.00;87.50;;;;;;4922700;29;20457;-74
2021/12/02 06:39:11;;;;;;;2.00;0.60;;;5.00;87.60;;;;;;4922469;29;20453;-74
2021/12/02 06:41:38;;;;;;;2.03;0.67;;;5.10;87.30;;;;;;4922419;29;20476;-74
2021/12/02 06:44:05;;;;;;;2.10;0.60;;;5.30;87.10;;;;;;4921381;29;20464;-74
2021/12/02 06:46:31;;;;;;;2.03;0.60;;;5.50;86.80;;;;;;4921167;29;20452;-74
2021/12/02 06:48:58;;;;;;;2.00;0.67;;;5.60;86.10;;;;;;4920503;29;20456;-74
2021/12/02 06:51:25;;;;;;;2.10;0.70;;;5.70;85.40;;;;;;4919499;29;20480;-75
2021/12/02 06:53:53;;;;;;;2.00;0.60;;;5.70;84.90;;;;;;4919322;29;20453;-75
2021/12/02 06:56:20;;;;;;;2.00;0.60;;;5.70;85.30;;;;;;4919353;29;20504;-75
2021/12/02 06:58:46;;;;;;;2.10;0.70;;;5.70;84.80;;;;;;4919245;29;20456;-74
2021/12/02 07:01:13;;;;;;;1.97;0.60;;;5.70;85.00;;;;;;4918834;29;20488;-74
2021/12/02 07:03:40;;;;;;;2.00;0.60;;;5.60;85.30;;;;;;4919045;29;20488;-75
2021/12/02 07:06:07;;;;;;;2.00;0.70;;;5.80;85.30;;;;;;4919144;29;20808;-75
2021/12/02 07:08:33;;;;;;;2.00;0.60;;;6.00;84.80;;;;;;4918881;29;20512;-75
2021/12/02 07:11:05;;;;;;;2.10;0.70;;;6.10;84.30;;;;;;4919026;29;20532;-75
2021/12/02 07:13:32;;;;;;;2.00;0.60;;;6.10;83.50;;;;;;4919059;29;20442;-75
2021/12/02 07:16:00;;;;;;;1.90;0.60;;;6.00;83.50;;;;;;4918802;29;20989;-75
2021/12/02 07:18:26;;;;;;;1.93;0.53;;;5.90;83.40;;;;;;4918961;29;20452;-75
2021/12/02 07:20:53;;;;;;;2.10;0.80;;;5.80;84.10;;;;;;4919058;29;20477;-75
2021/12/02 07:23:21;;;;;;;2.00;0.70;;;5.90;84.20;;;;;;4918848;29;20485;-75
2021/12/02 07:25:49;;;;;;;2.07;0.73;;;6.00;83.80;;;;;;4918779;29;20453;-75
2021/12/02 07:28:19;;;;;;;1.93;0.60;;;6.00;83.10;;;;;;4918746;29;20871;-75
2021/12/02 07:30:51;;;;;;;2.00;0.60;;;5.90;83.30;;;;;;4918527;29;20483;-75
2021/12/02 07:33:19;;;;;;;2.33;0.60;;;5.90;83.70;;;;;;4918405;29;20439;-75
2021/12/02 07:35:46;;;;;;;2.20;0.70;;;6.00;83.80;;;;;;4918778;29;20460;-73
2021/12/02 07:38:12;;;;;;;2.00;0.70;;;6.10;83.20;;;;;;4918413;29;20508;-74
2021/12/02 07:40:41;;;;;;;1.93;0.60;;;6.20;83.40;;;;;;4918878;29;20464;-75
2021/12/02 07:43:08;;;;;;;1.90;0.60;;;6.30;82.90;;;;;;4918200;29;21055;-75
2021/12/02 07:45:36;;;;;;;2.00;0.80;;;6.40;82.20;;;;;;4918388;29;20456;-75
2021/12/02 07:48:04;;;;;;;2.30;1.00;;;6.60;83.00;;;;;;4918412;29;20452;-75
2021/12/02 07:50:31;;;;;;;2.10;0.70;;;6.80;81.10;;;;;;4918177;29;20504;-75
2021/12/02 07:53:01;;;;;;;2.17;0.63;;;6.90;80.70;;;;;;4918236;29;20964;-75
2021/12/02 07:55:30;;;;;;;2.30;0.80;;;7.00;80.00;;;;;;4917984;29;20987;-75
2021/12/02 07:57:57;;;;;;;2.13;0.70;;;6.80;79.70;;;;;;4917823;29;20456;-75
2021/12/02 08:00:26;;;;;;;2.43;0.80;;;6.90;80.20;;;;;;4918190;29;20508;-75
2021/12/02 08:02:56;;;;;;;2.50;0.83;;;6.80;80.40;;;;;;4917851;29;20497;-75
2021/12/02 08:05:24;;;;;;;2.87;0.93;;;6.90;80.30;;;;;;4918166;29;20504;-75
2021/12/02 08:07:52;;;;;;;2.50;1.07;;;7.00;79.90;;;;;;4917783;29;20830;-75
2021/12/02 08:10:18;;;;;;;2.60;1.00;;;7.00;79.80;;;;;;4917656;29;20453;-75
2021/12/02 08:12:48;;;;;;;2.67;1.10;;;7.00;79.60;;;;;;4917965;29;20461;-76
2021/12/02 08:15:18;;;;;;;2.20;0.90;;;7.10;79.60;;;;;;4918020;29;20438;-73
2021/12/02 08:17:46;;;;;;;2.07;0.80;;;7.00;79.40;;;;;;4918209;29;20453;-73
2021/12/02 08:20:14;;;;;;;2.10;0.80;;;6.90;80.30;;;;;;4917982;29;20452;-73
2021/12/02 08:22:41;;;;;;;2.00;0.70;;;7.10;80.00;;;;;;4917559;29;20999;-73
2021/12/02 08:25:09;;;;;;;2.50;1.03;;;7.10;79.40;;;;;;4918143;29;20456;-73
2021/12/02 08:27:35;;;;;;;2.20;0.70;;;7.10;79.40;;;;;;4917922;29;20457;-73
2021/12/02 08:30:04;;;;;;;2.10;0.80;;;7.10;79.60;;;;;;4917492;29;20827;-73
2021/12/02 08:32:31;;;;;;;2.20;0.80;;;7.10;79.40;;;;;;4917698;29;20483;-73
2021/12/02 08:35:00;;;;;;;2.30;0.90;;;7.20;79.50;;;;;;4917773;29;20475;-73
2021/12/02 08:37:30;;;;;;;2.20;0.90;;;7.10;80.20;;;;;;4917899;29;20496;-71
2021/12/02 08:39:59;;;;;;;2.17;0.77;;;7.30;80.00;;;;;;4917932;29;20532;-73
2021/12/02 08:42:26;;;;;;;2.20;0.90;;;7.30;79.20;;;;;;4917670;29;20496;-71
2021/12/02 08:44:54;;;;;;;2.00;0.70;;;7.40;79.40;;;;;;4917396;29;20943;-72
2021/12/02 08:47:22;;;;;;;2.50;0.90;;;7.40;79.20;;;;;;4917672;29;20503;-72
2021/12/02 08:49:52;;;;;;;2.53;1.47;;;7.40;79.20;;;;;;4917476;29;20499;-72
2021/12/02 08:52:20;;;;;;;2.10;0.80;;;7.30;79.20;;;;;;4917454;29;20511;-74
2021/12/02 08:54:48;;;;;;;2.20;0.80;;;7.20;79.50;;;;;;4918439;29;20491;-74
2021/12/02 08:57:15;;;;;;;2.50;0.90;;;6.90;81.10;;;;;;4918219;29;20457;-74
2021/12/02 08:59:43;;;;;;;2.43;0.90;;;7.10;81.30;;;;;;4917454;29;20460;-73
2021/12/02 09:02:10;;;;;;;2.33;1.03;;;7.10;80.70;;;;;;4916922;29;20484;-73
2021/12/02 09:04:37;;;;;;;2.40;0.80;;;6.90;81.00;;;;;;4917099;29;21126;-74
2021/12/02 09:07:04;;;;;;;2.20;0.73;;;7.00;82.10;;;;;;4917319;29;20455;-73
2021/12/02 09:09:31;;;;;;;2.27;0.83;;;7.10;82.40;;;;;;4917161;29;20953;-73
2021/12/02 09:11:59;;;;;;;2.17;0.77;;;7.20;82.30;;;;;;4921344;29;20476;-73
2021/12/02 09:14:26;;;;;;;2.30;0.90;;;7.20;82.50;;;;;;4921178;29;20452;-73
2021/12/02 09:16:53;;;;;;;2.50;0.80;;;7.10;82.40;;;;;;4921193;29;20464;-74
2021/12/02 09:19:19;;;;;;;2.40;0.90;;;7.20;82.90;;;;;;4921092;29;20460;-74
2021/12/02 09:21:47;;;;;;;2.47;1.00;;;7.20;82.20;;;;;;4921003;29;20476;-73
2021/12/02 09:24:18;;;;;;;2.03;0.70;;;7.00;83.30;;;;;;4920959;29;20488;-74
2021/12/02 09:26:45;;;;;;;2.57;0.97;;;6.80;83.10;;;;;;4921122;29;20869;-74
2021/12/02 09:29:14;;;;;;;2.00;0.70;;;6.70;84.00;;;;;;4921097;29;20456;-72
2021/12/02 09:31:40;;;;;;;2.00;0.70;;;6.70;84.70;;;;;;4920952;29;20475;-73
2021/12/02 09:34:07;;;;;;;3.07;0.80;;;6.70;84.90;;;;;;4920843;29;20937;-73
2021/12/02 09:36:34;;;;;;;2.50;0.90;;;6.60;84.50;;;;;;4920893;29;20460;-73
2021/12/02 09:39:01;;;;;;;2.37;0.93;;;6.60;84.70;;;;;;4920859;29;20460;-73
2021/12/02 09:41:28;;;;;;;3.77;1.00;;;6.70;85.10;;;;;;4920714;29;20476;-73
2021/12/02 09:43:54;;;;;;;2.03;0.67;;;6.70;84.30;;;;;;4920812;29;20536;-73
2021/12/02 09:46:22;;;;;;;2.10;0.70;;;6.90;84.40;;;;;;4920852;29;20459;-73
2021/12/02 09:48:50;;;;;;;2.00;0.70;;;6.90;84.30;;;;;;4920582;29;20964;-73
2021/12/02 09:51:20;;;;;;;2.20;0.80;;;6.90;83.80;;;;;;4920520;29;20485;-73
2021/12/02 09:53:53;;;;;;;2.00;0.70;;;6.90;83.90;;;;;;4920795;29;20429;-73
2021/12/02 09:56:24;;;;;;;2.20;0.80;;;6.70;83.50;;;;;;4920521;29;20444;-73
2021/12/02 09:58:52;;;;;;;1.97;0.70;;;6.50;83.70;;;;;;4920515;29;20441;-73
2021/12/02 10:01:22;;;;;;;2.20;0.80;;;6.50;84.90;;;;;;4920044;29;20528;-73
2021/12/02 10:03:55;;;;;;;2.00;0.60;;;6.40;84.50;;;;;;4920297;29;20765;-74
2021/12/02 10:06:28;;;;;;;2.40;0.90;;;6.20;85.10;;;;;;4920454;29;20444;-73
2021/12/02 10:09:04;;;;;;;2.00;0.70;;;6.00;85.70;;;;;;4920335;29;20473;-73
2021/12/02 10:11:33;;;;;;;2.50;0.90;;;6.00;86.10;;;;;;4920212;29;20813;-73
2021/12/02 10:14:19;;;;;;;1.97;0.63;;;6.10;86.50;;;;;;4922284;29;20538;-74
2021/12/02 10:16:47;;;;;;;2.00;0.70;;;6.30;86.40;;;;;;4921437;29;20834;-74
2021/12/02 10:19:18;;;;;;;2.20;1.00;;;6.50;85.10;;;;;;4920053;29;20543;-74
2021/12/02 10:21:50;;;;;;;2.20;0.80;;;6.70;84.80;;;;;;4919545;29;20853;-74
2021/12/02 10:24:20;;;;;;;2.10;0.70;;;6.60;84.60;;;;;;4919808;29;20976;-74
2021/12/02 10:26:50;;;;;;;2.10;0.80;;;6.70;84.60;;;;;;4920321;29;20535;-74
2021/12/02 10:29:19;;;;;;;3.57;1.00;;;6.70;83.90;;;;;;4920452;29;20456;-74
2021/12/02 10:31:48;;;;;;;2.93;0.80;;;6.50;82.50;;;;;;4919861;29;20528;-74
2021/12/02 10:34:18;;;;;;;1.97;0.70;;;6.30;81.80;;;;;;4919934;29;20929;-74
2021/12/02 10:36:46;;;;;;;2.00;0.63;;;6.00;81.90;;;;;;4920836;29;20441;-74
2021/12/02 10:39:16;;;;;;;2.10;0.73;;;6.00;82.30;;;;;;4919856;29;20504;-74
2021/12/02 10:41:45;;;;;;;2.23;0.90;;;5.90;82.50;;;;;;4920077;29;20582;-74
2021/12/02 10:44:17;;;;;;;2.60;1.10;;;5.90;82.60;;;;;;4919783;29;20480;-73
2021/12/02 10:47:01;;;;;;;3.37;1.57;;;6.00;83.00;;;;;;4919834;29;20456;-74
2021/12/02 10:49:31;;;;;;;2.40;0.90;;;5.90;83.00;;;;;;4919787;29;20460;-74
2021/12/02 10:52:01;;;;;;;2.63;0.93;;;5.80;83.30;;;;;;4920024;29;20480;-74
2021/12/02 10:54:30;;;;;;;2.27;0.73;;;5.80;83.20;;;;;;4919728;29;20455;-74
2021/12/02 10:56:59;;;;;;;2.33;1.00;;;5.70;83.50;;;;;;4919368;29;20457;-74
2021/12/02 10:59:39;;;;;;;3.13;1.13;;;5.70;83.60;;;;;;4919266;29;20456;-73
2021/12/02 11:02:09;;;;;;;2.50;0.97;;;5.70;83.40;;;;;;4918973;29;20540;-73
2021/12/02 11:04:40;;;;;;;2.40;0.90;;;5.70;83.60;;;;;;4919162;29;20841;-73
2021/12/02 11:07:11;;;;;;;2.43;0.87;;;5.70;83.40;;;;;;4919226;29;20418;-73
2021/12/02 11:09:39;;;;;;;2.67;0.83;;;5.60;83.10;;;;;;4919158;29;20532;-73
2021/12/02 11:12:12;;;;;;;2.10;0.70;;;5.50;83.00;;;;;;4919311;29;20536;-73
2021/12/02 11:14:43;;;;;;;2.80;0.73;;;5.60;83.40;;;;;;4918994;29;20918;-74
2021/12/02 11:17:12;;;;;;;2.10;0.70;;;5.70;83.30;;;;;;4919112;29;20516;-74
2021/12/02 11:19:44;;;;;;;2.10;0.70;;;5.70;83.00;;;;;;4919095;29;20507;-73
2021/12/02 11:22:13;;;;;;;2.30;0.80;;;5.70;82.70;;;;;;4919068;29;20476;-72
2021/12/02 11:24:40;;;;;;;2.00;0.60;;;5.70;83.30;;;;;;4918762;29;20492;-74
2021/12/02 11:27:13;;;;;;;2.00;0.70;;;5.70;83.00;;;;;;4919046;29;20449;-74
2021/12/02 11:30:01;;;;;;;2.20;0.80;;;5.60;83.40;;;;;;4918635;29;20437;-74
2021/12/02 11:32:35;;;;;;;2.20;1.00;;;5.60;83.60;;;;;;4917824;29;20484;-74
2021/12/02 11:35:13;;;;;;;2.00;0.70;;;5.60;83.30;;;;;;4918732;29;20434;-74
2021/12/02 11:37:41;;;;;;;2.40;0.80;;;5.60;83.40;;;;;;4919003;29;20473;-74
2021/12/02 11:40:10;;;;;;;2.10;0.70;;;5.50;83.20;;;;;;4918987;29;20487;-74
2021/12/02 11:42:38;;;;;;;3.83;0.90;;;5.50;83.90;;;;;;4918954;29;20473;-74
2021/12/02 11:45:08;;;;;;;2.10;0.80;;;5.60;83.10;;;;;;4918482;29;20868;-74
2021/12/02 11:47:35;;;;;;;2.40;0.70;;;5.70;83.40;;;;;;4918322;29;20456;-74
2021/12/02 11:50:04;;;;;;;2.10;0.80;;;5.80;83.40;;;;;;4919687;29;20848;-74
2021/12/02 11:52:31;;;;;;;2.20;0.80;;;5.90;82.80;;;;;;4918771;29;20477;-74
2021/12/02 11:54:59;;;;;;;3.17;0.70;;;5.80;82.30;;;;;;4918381;29;20457;-74
2021/12/02 11:57:27;;;;;;;2.30;0.80;;;6.00;82.60;;;;;;4918499;29;20531;-74
2021/12/02 11:59:54;;;;;;;2.20;0.83;;;6.10;82.30;;;;;;4918444;29;20475;-74
2021/12/02 12:02:21;;;;;;;2.40;0.70;;;6.10;82.00;;;;;;4917919;29;20480;-73
2021/12/02 12:04:57;;;;;;;2.37;0.97;;;6.20;82.50;;;;;;4918294;29;20563;-73
2021/12/02 12:07:39;;;;;;;2.47;0.90;;;6.30;82.20;;;;;;4918128;29;20963;-74
2021/12/02 12:10:22;;;;;;;2.57;0.93;;;6.40;81.90;;;;;;4918112;29;20441;-73
2021/12/02 12:12:50;;;;;;;2.03;0.67;;;6.50;81.20;;;;;;4918108;29;20448;-73
2021/12/02 12:15:34;;;;;;;2.50;0.70;;;6.50;80.90;;;;;;4918246;29;20455;-74
2021/12/02 12:18:02;;;;;;;2.50;1.00;;;6.40;80.40;;;;;;4917979;29;20456;-74
2021/12/02 12:20:52;;;;;;;2.47;0.87;;;6.60;81.00;;;;;;4917742;29;20459;-73
2021/12/02 12:23:32;;;;;;;2.00;0.70;;;6.70;80.80;;;;;;4917739;29;20480;-73
2021/12/02 12:26:18;;;;;;;2.90;0.87;;;6.60;80.70;;;;;;4917777;29;20847;-73
2021/12/02 12:29:29;;;;;;;2.50;1.07;;;6.60;80.90;;;;;;4917896;29;20524;-74
2021/12/02 12:32:52;;;;;;;2.00;0.70;;;6.50;80.60;;;;;;4917591;29;20491;-74
2021/12/02 12:35:33;;;;;;;2.30;0.90;;;6.60;80.30;;;;;;4917672;29;20441;-73
2021/12/02 12:38:05;;;;;;;2.30;1.00;;;6.40;80.50;;;;;;4917320;29;20437;-74
2021/12/02 12:40:46;;;;;;;2.57;0.90;;;6.40;81.10;;;;;;4917130;29;20937;-73
2021/12/02 12:43:22;;;;;;;2.13;0.80;;;6.40;80.60;;;;;;4917516;29;20429;-73
2021/12/02 12:45:49;;;;;;;2.20;0.80;;;6.30;80.80;;;;;;4917403;29;20441;-73
2021/12/02 12:48:28;;;;;;;2.60;0.97;;;6.40;80.80;;;;;;4917482;29;20457;-73
2021/12/02 12:51:08;;;;;;;2.00;0.80;;;6.30;80.60;;;;;;4917104;29;20572;-73
2021/12/02 12:53:37;;;;;;;2.20;0.97;;;6.40;80.80;;;;;;4917488;29;20452;-74
2021/12/02 12:56:11;;;;;;;2.03;0.80;;;6.40;81.00;;;;;;4917297;29;20460;-73
2021/12/02 12:58:40;;;;;;;3.33;0.83;;;6.60;80.80;;;;;;4917365;29;20444;-74
2021/12/02 13:01:19;;;;;;;2.30;1.00;;;6.40;80.90;;;;;;4917155;29;20492;-74
2021/12/02 13:04:14;;;;;;;2.40;1.00;;;6.40;81.00;;;;;;4917365;29;20472;-74
2021/12/02 13:07:09;;;;;;;2.30;1.00;;;6.30;81.00;;;;;;4917183;29;20457;-74
2021/12/02 13:10:02;;;;;;;2.27;1.00;;;6.40;81.40;;;;;;4883950;29;20949;-74
2021/12/02 13:12:51;;;;;;;2.50;0.90;;;6.50;81.20;;;;;;4917655;29;20481;-74
2021/12/02 13:15:21;;;;;;;2.10;0.80;;;6.60;81.00;;;;;;4917351;29;20437;-72
2021/12/02 13:17:49;;;;;;;2.67;1.00;;;6.50;80.40;;;;;;4917365;29;20451;-75
2021/12/02 13:20:34;;;;;;;2.20;0.90;;;6.40;80.60;;;;;;4917239;29;20453;-74
2021/12/02 13:23:28;;;;;;;2.17;0.80;;;6.40;80.90;;;;;;4917312;29;20448;-75
2021/12/02 13:25:58;;;;;;;2.40;1.10;;;6.40;80.90;;;;;;4916920;29;20489;-75
2021/12/02 13:28:29;;;;;;;2.60;1.07;;;6.50;81.00;;;;;;4916875;29;20959;-75
2021/12/02 13:30:58;;;;;;;3.00;1.10;;;6.40;81.10;;;;;;4917065;29;20468;-75
2021/12/02 13:33:34;;;;;;;2.10;0.80;;;6.30;80.00;;;;;;4917113;29;20445;-75
2021/12/02 13:36:00;;;;;;;2.20;0.90;;;6.00;79.70;;;;;;4917318;29;20448;-75
2021/12/02 13:38:27;;;;;;;2.03;0.80;;;6.10;80.00;;;;;;4917138;29;20491;-75
2021/12/02 13:40:54;;;;;;;2.10;0.97;;;6.10;79.70;;;;;;4917265;29;20467;-74
2021/12/02 13:43:21;;;;;;;4.17;1.00;;;6.10;80.20;;;;;;4917164;29;20451;-74
2021/12/02 13:45:48;;;;;;;1.97;0.70;;;6.10;80.60;;;;;;4916902;29;20507;-74
2021/12/02 13:48:17;;;;;;;2.00;0.70;;;6.10;80.00;;;;;;4916960;29;20460;-74
2021/12/02 13:50:47;;;;;;;2.00;0.70;;;6.00;80.00;;;;;;4916789;29;20472;-74
2021/12/02 13:53:14;;;;;;;2.10;0.80;;;6.00;80.70;;;;;;4916943;29;20444;-74
2021/12/02 13:55:44;;;;;;;2.10;0.80;;;5.80;80.70;;;;;;4917202;29;20499;-74
2021/12/02 13:58:17;;;;;;;2.07;0.80;;;5.60;81.60;;;;;;4920255;29;20460;-74
2021/12/02 14:04:08;;;;;;;2.67;1.13;;;5.30;82.10;;;;;;4920582;29;20479;-75
2021/12/02 14:06:35;;;;;;;2.30;0.83;;;5.30;83.10;;;;;;4920531;29;20524;-75
2021/12/02 14:09:13;;;;;;;2.40;0.90;;;5.30;83.10;;;;;;4920305;29;20460;-75
2021/12/02 14:11:40;;;;;;;2.10;0.80;;;5.40;83.10;;;;;;4920223;29;20504;-75
2021/12/02 14:14:07;;;;;;;2.50;1.00;;;5.50;82.80;;;;;;4920207;29;20464;-75
2021/12/02 14:16:33;;;;;;;2.47;0.90;;;5.60;82.70;;;;;;4920200;29;20512;-74
2021/12/02 14:19:10;;;;;;;2.50;0.77;;;5.70;82.10;;;;;;4920191;29;20448;-74
2021/12/02 14:21:37;;;;;;;2.37;0.90;;;5.70;82.10;;;;;;4920217;29;20475;-75
2021/12/02 14:24:04;;;;;;;2.10;0.77;;;5.60;82.00;;;;;;4919847;29;20448;-75
2021/12/02 14:26:31;;;;;;;2.20;0.80;;;5.50;81.70;;;;;;4919817;29;20528;-74
2021/12/02 14:28:59;;;;;;;2.30;0.80;;;5.30;82.00;;;;;;4919987;29;20449;-74
2021/12/02 14:31:29;;;;;;;2.20;0.80;;;5.20;82.10;;;;;;4919712;29;20472;-74
2021/12/02 14:33:57;;;;;;;2.10;0.70;;;5.20;82.80;;;;;;4919764;29;20443;-75
2021/12/02 14:36:27;;;;;;;2.30;0.70;;;5.20;82.50;;;;;;4919685;29;20507;-74
2021/12/02 14:39:03;;;;;;;2.33;0.90;;;5.10;82.50;;;;;;4919644;29;20512;-74
2021/12/02 14:41:32;;;;;;;2.10;0.70;;;5.10;82.80;;;;;;4919860;29;20531;-74
2021/12/02 14:44:00;;;;;;;2.30;0.80;;;5.00;82.90;;;;;;4919513;29;20459;-74
2021/12/02 14:46:29;;;;;;;2.20;0.90;;;5.00;83.70;;;;;;4919463;29;20457;-75
2021/12/02 14:49:10;;;;;;;2.93;1.33;;;5.00;83.60;;;;;;4919512;29;20524;-74
2021/12/02 14:51:52;;;;;;;3.17;0.90;;;5.00;83.70;;;;;;4919358;29;20484;-75
2021/12/02 14:54:30;;;;;;;2.87;1.43;;;4.80;83.70;;;;;;4919348;29;20440;-75
2021/12/02 14:56:58;;;;;;;2.00;0.70;;;4.80;83.50;;;;;;4919336;29;20449;-74
2021/12/02 14:59:28;;;;;;;2.37;1.10;;;4.90;83.40;;;;;;4918998;29;20972;-75
2021/12/02 15:02:07;;;;;;;2.13;0.80;;;4.80;83.30;;;;;;4918955;29;20484;-74
2021/12/02 15:04:35;;;;;;;2.57;1.03;;;4.90;83.30;;;;;;4919197;29;20476;-75
2021/12/02 15:07:13;;;;;;;2.23;0.90;;;4.70;83.30;;;;;;4918446;29;20464;-75
2021/12/02 15:09:44;;;;;;;2.20;0.90;;;4.90;83.60;;;;;;4918823;29;20532;-74
2021/12/02 15:12:14;;;;;;;2.33;1.00;;;5.00;82.70;;;;;;4918924;29;20471;-74
2021/12/02 15:14:43;;;;;;;2.70;1.57;;;5.00;82.80;;;;;;4919048;29;20504;-74
2021/12/02 15:17:11;;;;;;;2.70;1.57;;;5.00;82.60;;;;;;4919017;29;20464;-75
2021/12/02 15:19:41;;;;;;;2.50;1.40;;;5.00;82.80;;;;;;4919225;29;20456;-74
2021/12/02 15:25:13;;;;;;;2.30;1.20;;;4.90;82.70;;;;;;5091784;28;20511;-74
2021/12/02 15:27:59;;;;;;;2.37;0.90;;;4.80;82.90;;;;;;5090848;28;20448;-74
2021/12/02 15:30:27;;;;;;;2.80;1.10;;;4.90;83.20;;;;;;5090980;28;20425;-74
2021/12/02 15:32:54;;;;;;;2.20;0.97;;;4.80;83.30;;;;;;5090962;28;20436;-74
2021/12/02 15:35:21;;;;;;;2.20;1.20;;;4.90;83.40;;;;;;5090893;28;20445;-74
2021/12/02 15:37:47;;;;;;;2.70;1.30;;;5.00;82.70;;;;;;5090838;28;20445;-75
2021/12/02 15:40:15;;;;;;;2.70;1.27;;;5.00;82.80;;;;;;5090453;28;20943;-74
2021/12/02 15:42:43;;;;;;;2.40;1.00;;;4.90;82.90;;;;;;5090622;28;20471;-75
2021/12/02 15:45:11;;;;;;;2.83;1.43;;;5.00;83.10;;;;;;5090702;28;20494;-74
2021/12/02 15:47:39;;;;;;;2.97;1.30;;;5.00;82.80;;;;;;5090452;28;20452;-75
2021/12/02 15:50:12;;;;;;;2.50;0.90;;;4.80;82.70;;;;;;5090626;28;20448;-75
2021/12/02 15:52:40;;;;;;;2.70;0.90;;;4.80;82.90;;;;;;5090579;28;20469;-74
2021/12/02 15:55:08;;;;;;;2.80;1.03;;;4.60;82.80;;;;;;5091565;28;20478;-74
2021/12/02 15:57:37;;;;;;;2.00;0.80;;;4.50;83.20;;;;;;5090426;28;20537;-75
2021/12/02 16:00:11;;;;;;;2.10;0.80;;;4.40;83.20;;;;;;5090501;28;20441;-75
2021/12/02 16:02:43;;;;;;;2.30;1.00;;;4.40;83.70;;;;;;5090316;28;20567;-75
2021/12/02 16:05:12;;;;;;;2.23;0.90;;;4.10;84.10;;;;;;5090301;28;20417;-74
2021/12/02 16:07:41;;;;;;;3.80;1.93;;;4.20;84.50;;;;;;5090322;28;20449;-74
2021/12/02 16:10:30;;;;;;;2.60;1.63;;;4.20;84.60;;;;;;5090162;28;20455;-74
2021/12/02 16:15:29;;;;;;;2.60;1.10;;;4.20;84.60;;;;;;5048327;28;20439;-70
2021/12/02 16:17:56;;;;;;;4.10;2.93;;;4.20;84.60;;;;;;5049513;28;20504;-69
2021/12/02 16:20:22;;;;;;;2.67;1.30;;;4.20;84.50;;;;;;5049513;28;20449;-70
2021/12/02 16:22:49;;;;;;;2.97;1.53;;;4.30;84.40;;;;;;5049340;28;20442;-70
2021/12/02 16:25:16;;;;;;;2.90;0.90;;;4.30;84.30;;;;;;5049353;28;20447;-70
2021/12/02 16:27:44;;;;;;;2.30;0.80;;;4.40;84.00;;;;;;5049014;28;20905;-70
2021/12/02 16:30:15;;;;;;;2.20;0.97;;;4.30;83.90;;;;;;5049363;28;20450;-69
2021/12/02 16:32:45;;;;;;;2.20;0.80;;;4.40;84.10;;;;;;5050260;28;20435;-69
2021/12/02 16:35:12;;;;;;;2.20;1.00;;;4.40;83.90;;;;;;5042329;28;20923;-69
2021/12/02 16:37:39;;;;;;;2.43;1.30;;;4.40;84.00;;;;;;5036305;28;20443;-70
2021/12/02 16:40:12;;;;;;;2.33;0.97;;;4.60;83.70;;;;;;5035992;28;20451;-69
2021/12/02 16:42:41;;;;;;;3.00;1.53;;;4.70;83.30;;;;;;5035822;28;20451;-69
2021/12/02 16:45:10;;;;;;;2.87;1.27;;;4.70;83.10;;;;;;5035568;28;20494;-70
2021/12/02 16:47:37;;;;;;;2.60;1.10;;;4.80;82.80;;;;;;5035727;28;20451;-69
2021/12/02 16:50:08;;;;;;;2.10;0.90;;;4.80;82.70;;;;;;5035560;28;20447;-70
2021/12/02 16:52:35;;;;;;;3.30;1.20;;;5.00;82.60;;;;;;5035642;28;20778;-69
2021/12/02 16:55:02;;;;;;;2.20;0.90;;;5.00;82.40;;;;;;5035430;28;20463;-69
2021/12/02 16:57:28;;;;;;;5.17;2.70;;;5.00;82.10;;;;;;5035305;28;20428;-70
2021/12/02 16:59:55;;;;;;;2.30;0.90;;;5.00;82.10;;;;;;5035384;28;20451;-69
2021/12/02 17:02:23;;;;;;;2.20;0.80;;;4.90;81.90;;;;;;5035104;28;20958;-69
2021/12/02 17:04:50;;;;;;;2.63;1.20;;;4.80;82.20;;;;;;5035237;28;20499;-70
2021/12/02 17:07:19;;;;;;;2.30;1.17;;;4.90;82.20;;;;;;5035182;28;20443;-69
2021/12/02 17:09:47;;;;;;;2.40;1.10;;;4.80;82.30;;;;;;5035372;28;20451;-70
2021/12/02 17:12:14;;;;;;;2.60;1.13;;;4.80;82.40;;;;;;5035387;28;20831;-69
2021/12/02 17:14:41;;;;;;;2.63;1.30;;;4.70;82.60;;;;;;5034815;28;20475;-69
2021/12/02 17:17:11;;;;;;;2.73;1.20;;;4.60;82.90;;;;;;5035229;28;20451;-70
2021/12/02 17:19:38;;;;;;;2.20;0.83;;;4.60;83.10;;;;;;5035327;28;20446;-70
2021/12/02 17:22:05;;;;;;;2.30;1.03;;;4.60;83.00;;;;;;5035321;28;20447;-70